sensor_id;sensor_type;location;lat;lon;timestamp;P1;durP1;ratioP1;P2;durP2;ratioP2
68398;SDS011;56258;52.196;13.868;2022-12-26T00:00:21;3.17;;;0.50;;
68398;SDS011;56258;52.196;13.868;2022-12-26T00:02:48;2.65;;;0.40;;
68398;SDS011;56258;52.196;13.868;2022-12-26T00:05:14;3.45;;;0.47;;
68398;SDS011;56258;52.196;13.868;2022-12-26T00:07:41;2.83;;;0.40;;
68398;SDS011;56258;52.196;13.868;2022-12-26T00:10:07;3.50;;;0.40;;
68398;SDS011;56258;52.196;13.868;2022-12-26T00:12:34;2.92;;;0.43;;
68398;SDS011;56258;52.196;13.868;2022-12-26T00:15:01;3.40;;;0.60;;
68398;SDS011;56258;52.196;13.868;2022-12-26T00:17:27;4.00;;;0.40;;
68398;SDS011;56258;52.196;13.868;2022-12-26T00:19:54;3.17;;;0.40;;
68398;SDS011;56258;52.196;13.868;2022-12-26T00:22:20;2.47;;;0.40;;
68398;SDS011;56258;52.196;13.868;2022-12-26T00:24:47;2.55;;;0.40;;
68398;SDS011;56258;52.196;13.868;2022-12-26T00:27:14;2.70;;;0.40;;
68398;SDS011;56258;52.196;13.868;2022-12-26T00:29:40;3.78;;;0.50;;
68398;SDS011;56258;52.196;13.868;2022-12-26T00:32:07;3.38;;;0.45;;
68398;SDS011;56258;52.196;13.868;2022-12-26T00:34:35;3.20;;;0.40;;
68398;SDS011;56258;52.196;13.868;2022-12-26T00:37:01;3.95;;;0.50;;
68398;SDS011;56258;52.196;13.868;2022-12-26T00:39:28;3.70;;;0.50;;
68398;SDS011;56258;52.196;13.868;2022-12-26T00:41:54;2.90;;;0.50;;
68398;SDS011;56258;52.196;13.868;2022-12-26T00:44:21;2.88;;;0.40;;
68398;SDS011;56258;52.196;13.868;2022-12-26T00:46:48;2.65;;;0.40;;
68398;SDS011;56258;52.196;13.868;2022-12-26T00:49:14;2.67;;;0.50;;
68398;SDS011;56258;52.196;13.868;2022-12-26T00:51:41;3.33;;;0.40;;
68398;SDS011;56258;52.196;13.868;2022-12-26T00:54:07;3.33;;;0.40;;
68398;SDS011;56258;52.196;13.868;2022-12-26T00:56:34;3.35;;;0.50;;
68398;SDS011;56258;52.196;13.868;2022-12-26T00:59:01;3.85;;;0.45;;
68398;SDS011;56258;52.196;13.868;2022-12-26T01:01:27;2.50;;;0.40;;
68398;SDS011;56258;52.196;13.868;2022-12-26T01:03:56;2.55;;;0.40;;
68398;SDS011;56258;52.196;13.868;2022-12-26T01:06:23;2.55;;;0.40;;
68398;SDS011;56258;52.196;13.868;2022-12-26T01:08:51;3.78;;;0.50;;
68398;SDS011;56258;52.196;13.868;2022-12-26T01:11:18;2.60;;;0.40;;
68398;SDS011;56258;52.196;13.868;2022-12-26T01:14:04;2.47;;;0.40;;
68398;SDS011;56258;52.196;13.868;2022-12-26T01:16:42;3.70;;;0.50;;
68398;SDS011;56258;52.196;13.868;2022-12-26T01:19:10;3.15;;;0.40;;
68398;SDS011;56258;52.196;13.868;2022-12-26T01:21:38;3.03;;;0.40;;
68398;SDS011;56258;52.196;13.868;2022-12-26T01:24:06;3.40;;;0.50;;
68398;SDS011;56258;52.196;13.868;2022-12-26T01:26:32;4.68;;;0.50;;
68398;SDS011;56258;52.196;13.868;2022-12-26T01:28:59;3.85;;;0.40;;
68398;SDS011;56258;52.196;13.868;2022-12-26T01:31:25;2.78;;;0.50;;
68398;SDS011;56258;52.196;13.868;2022-12-26T01:33:52;2.45;;;0.30;;
68398;SDS011;56258;52.196;13.868;2022-12-26T01:36:19;3.45;;;0.47;;
68398;SDS011;56258;52.196;13.868;2022-12-26T01:38:45;2.58;;;0.32;;
68398;SDS011;56258;52.196;13.868;2022-12-26T01:41:12;2.75;;;0.50;;
68398;SDS011;56258;52.196;13.868;2022-12-26T01:43:53;2.70;;;0.40;;
68398;SDS011;56258;52.196;13.868;2022-12-26T01:46:27;2.95;;;0.40;;
68398;SDS011;56258;52.196;13.868;2022-12-26T01:48:59;3.50;;;0.40;;
68398;SDS011;56258;52.196;13.868;2022-12-26T01:51:30;3.20;;;0.40;;
68398;SDS011;56258;52.196;13.868;2022-12-26T01:54:02;2.95;;;0.40;;
68398;SDS011;56258;52.196;13.868;2022-12-26T01:56:53;4.18;;;0.50;;
68398;SDS011;56258;52.196;13.868;2022-12-26T01:59:21;5.95;;;0.40;;
68398;SDS011;56258;52.196;13.868;2022-12-26T02:01:53;3.30;;;0.40;;
68398;SDS011;56258;52.196;13.868;2022-12-26T02:04:21;4.03;;;0.30;;
68398;SDS011;56258;52.196;13.868;2022-12-26T02:07:12;3.80;;;0.40;;
68398;SDS011;56258;52.196;13.868;2022-12-26T02:09:39;3.13;;;0.40;;
68398;SDS011;56258;52.196;13.868;2022-12-26T02:12:19;4.22;;;0.45;;
68398;SDS011;56258;52.196;13.868;2022-12-26T02:15:09;2.63;;;0.35;;
68398;SDS011;56258;52.196;13.868;2022-12-26T02:17:39;2.55;;;0.40;;
68398;SDS011;56258;52.196;13.868;2022-12-26T02:25:56;3.35;;;0.40;;
68398;SDS011;56258;52.196;13.868;2022-12-26T02:33:58;3.95;;;0.45;;
68398;SDS011;56258;52.196;13.868;2022-12-26T02:45:03;3.42;;;0.40;;
68398;SDS011;56258;52.196;13.868;2022-12-26T02:48:15;3.22;;;0.40;;
68398;SDS011;56258;52.196;13.868;2022-12-26T02:54:18;3.10;;;0.50;;
68398;SDS011;56258;52.196;13.868;2022-12-26T02:57:23;2.80;;;0.40;;
68398;SDS011;56258;52.196;13.868;2022-12-26T03:00:16;2.60;;;0.40;;
68398;SDS011;56258;52.196;13.868;2022-12-26T03:05:50;3.17;;;0.40;;
68398;SDS011;56258;52.196;13.868;2022-12-26T03:08:42;3.05;;;0.47;;
68398;SDS011;56258;52.196;13.868;2022-12-26T03:11:36;2.08;;;0.40;;
68398;SDS011;56258;52.196;13.868;2022-12-26T03:14:26;3.58;;;0.40;;
68398;SDS011;56258;52.196;13.868;2022-12-26T03:16:57;2.90;;;0.40;;
68398;SDS011;56258;52.196;13.868;2022-12-26T03:19:49;3.08;;;0.50;;
68398;SDS011;56258;52.196;13.868;2022-12-26T03:25:31;3.75;;;0.50;;
68398;SDS011;56258;52.196;13.868;2022-12-26T03:28:24;2.50;;;0.40;;
68398;SDS011;56258;52.196;13.868;2022-12-26T03:30:51;2.75;;;0.40;;
68398;SDS011;56258;52.196;13.868;2022-12-26T03:36:05;3.17;;;0.40;;
68398;SDS011;56258;52.196;13.868;2022-12-26T03:41:29;2.92;;;0.40;;
68398;SDS011;56258;52.196;13.868;2022-12-26T03:44:29;3.00;;;0.47;;
68398;SDS011;56258;52.196;13.868;2022-12-26T03:47:25;2.50;;;0.40;;
68398;SDS011;56258;52.196;13.868;2022-12-26T03:50:26;3.83;;;0.40;;
68398;SDS011;56258;52.196;13.868;2022-12-26T03:53:23;2.55;;;0.40;;
68398;SDS011;56258;52.196;13.868;2022-12-26T03:59:28;2.38;;;0.43;;
68398;SDS011;56258;52.196;13.868;2022-12-26T04:02:21;2.33;;;0.30;;
68398;SDS011;56258;52.196;13.868;2022-12-26T04:05:08;2.58;;;0.32;;
68398;SDS011;56258;52.196;13.868;2022-12-26T04:07:58;2.95;;;0.38;;
68398;SDS011;56258;52.196;13.868;2022-12-26T04:10:48;2.05;;;0.30;;
68398;SDS011;56258;52.196;13.868;2022-12-26T04:13:48;2.78;;;0.40;;
68398;SDS011;56258;52.196;13.868;2022-12-26T04:16:43;2.45;;;0.40;;
68398;SDS011;56258;52.196;13.868;2022-12-26T04:19:56;2.78;;;0.40;;
68398;SDS011;56258;52.196;13.868;2022-12-26T04:22:43;3.08;;;0.40;;
68398;SDS011;56258;52.196;13.868;2022-12-26T04:25:42;2.80;;;0.40;;
68398;SDS011;56258;52.196;13.868;2022-12-26T04:28:42;2.63;;;0.40;;
68398;SDS011;56258;52.196;13.868;2022-12-26T04:31:35;3.33;;;0.40;;
68398;SDS011;56258;52.196;13.868;2022-12-26T04:34:44;1.75;;;0.30;;
68398;SDS011;56258;52.196;13.868;2022-12-26T04:37:35;2.67;;;0.30;;
68398;SDS011;56258;52.196;13.868;2022-12-26T04:40:26;2.58;;;0.40;;
68398;SDS011;56258;52.196;13.868;2022-12-26T04:43:15;2.45;;;0.30;;
68398;SDS011;56258;52.196;13.868;2022-12-26T04:46:16;2.10;;;0.30;;
68398;SDS011;56258;52.196;13.868;2022-12-26T04:48:45;2.55;;;0.40;;
68398;SDS011;56258;52.196;13.868;2022-12-26T04:51:32;3.35;;;0.40;;
68398;SDS011;56258;52.196;13.868;2022-12-26T04:53:59;2.40;;;0.30;;
68398;SDS011;56258;52.196;13.868;2022-12-26T04:56:26;2.53;;;0.30;;
68398;SDS011;56258;52.196;13.868;2022-12-26T04:58:53;2.72;;;0.40;;
68398;SDS011;56258;52.196;13.868;2022-12-26T05:01:19;2.90;;;0.40;;
68398;SDS011;56258;52.196;13.868;2022-12-26T05:04:05;2.50;;;0.30;;
68398;SDS011;56258;52.196;13.868;2022-12-26T05:06:50;2.25;;;0.30;;
68398;SDS011;56258;52.196;13.868;2022-12-26T05:09:36;2.20;;;0.30;;
68398;SDS011;56258;52.196;13.868;2022-12-26T05:12:03;3.08;;;0.40;;
68398;SDS011;56258;52.196;13.868;2022-12-26T05:14:32;3.13;;;0.40;;
68398;SDS011;56258;52.196;13.868;2022-12-26T05:17:04;2.13;;;0.30;;
68398;SDS011;56258;52.196;13.868;2022-12-26T05:19:51;2.47;;;0.32;;
68398;SDS011;56258;52.196;13.868;2022-12-26T05:22:38;3.03;;;0.50;;
68398;SDS011;56258;52.196;13.868;2022-12-26T05:25:26;2.65;;;0.40;;
68398;SDS011;56258;52.196;13.868;2022-12-26T05:28:15;2.45;;;0.40;;
68398;SDS011;56258;52.196;13.868;2022-12-26T05:31:01;3.03;;;0.38;;
68398;SDS011;56258;52.196;13.868;2022-12-26T05:33:28;2.22;;;0.30;;
68398;SDS011;56258;52.196;13.868;2022-12-26T05:36:13;2.03;;;0.30;;
68398;SDS011;56258;52.196;13.868;2022-12-26T05:38:42;2.20;;;0.30;;
68398;SDS011;56258;52.196;13.868;2022-12-26T05:41:09;2.85;;;0.40;;
68398;SDS011;56258;52.196;13.868;2022-12-26T05:43:35;2.67;;;0.45;;
68398;SDS011;56258;52.196;13.868;2022-12-26T05:46:02;2.33;;;0.30;;
68398;SDS011;56258;52.196;13.868;2022-12-26T05:48:29;2.88;;;0.40;;
68398;SDS011;56258;52.196;13.868;2022-12-26T05:50:59;2.17;;;0.40;;
68398;SDS011;56258;52.196;13.868;2022-12-26T05:53:27;2.30;;;0.40;;
68398;SDS011;56258;52.196;13.868;2022-12-26T05:55:54;3.03;;;0.40;;
68398;SDS011;56258;52.196;13.868;2022-12-26T05:58:26;1.83;;;0.32;;
68398;SDS011;56258;52.196;13.868;2022-12-26T06:01:02;2.63;;;0.40;;
68398;SDS011;56258;52.196;13.868;2022-12-26T06:03:33;2.40;;;0.30;;
68398;SDS011;56258;52.196;13.868;2022-12-26T06:06:00;2.05;;;0.40;;
68398;SDS011;56258;52.196;13.868;2022-12-26T06:08:27;2.65;;;0.40;;
68398;SDS011;56258;52.196;13.868;2022-12-26T06:10:54;2.72;;;0.38;;
68398;SDS011;56258;52.196;13.868;2022-12-26T06:13:20;2.45;;;0.40;;
68398;SDS011;56258;52.196;13.868;2022-12-26T06:15:47;3.22;;;0.30;;
68398;SDS011;56258;52.196;13.868;2022-12-26T06:18:13;2.13;;;0.38;;
68398;SDS011;56258;52.196;13.868;2022-12-26T06:20:40;2.70;;;0.30;;
68398;SDS011;56258;52.196;13.868;2022-12-26T06:23:07;2.75;;;0.40;;
68398;SDS011;56258;52.196;13.868;2022-12-26T06:25:33;2.20;;;0.30;;
68398;SDS011;56258;52.196;13.868;2022-12-26T06:28:00;1.92;;;0.30;;
68398;SDS011;56258;52.196;13.868;2022-12-26T06:30:26;2.35;;;0.40;;
68398;SDS011;56258;52.196;13.868;2022-12-26T06:32:53;2.13;;;0.30;;
68398;SDS011;56258;52.196;13.868;2022-12-26T06:35:19;1.70;;;0.30;;
68398;SDS011;56258;52.196;13.868;2022-12-26T06:37:46;3.15;;;0.40;;
68398;SDS011;56258;52.196;13.868;2022-12-26T06:40:13;2.17;;;0.30;;
68398;SDS011;56258;52.196;13.868;2022-12-26T06:42:39;2.53;;;0.30;;
68398;SDS011;56258;52.196;13.868;2022-12-26T06:45:06;4.40;;;0.40;;
68398;SDS011;56258;52.196;13.868;2022-12-26T06:47:33;2.25;;;0.30;;
68398;SDS011;56258;52.196;13.868;2022-12-26T06:50:00;5.38;;;0.30;;
68398;SDS011;56258;52.196;13.868;2022-12-26T06:52:27;3.45;;;0.47;;
68398;SDS011;56258;52.196;13.868;2022-12-26T06:54:53;2.85;;;0.40;;
68398;SDS011;56258;52.196;13.868;2022-12-26T06:57:20;3.78;;;0.40;;
68398;SDS011;56258;52.196;13.868;2022-12-26T06:59:46;2.40;;;0.35;;
68398;SDS011;56258;52.196;13.868;2022-12-26T07:02:13;3.60;;;0.38;;
68398;SDS011;56258;52.196;13.868;2022-12-26T07:04:40;2.42;;;0.38;;
68398;SDS011;56258;52.196;13.868;2022-12-26T07:07:06;2.70;;;0.40;;
68398;SDS011;56258;52.196;13.868;2022-12-26T07:09:33;2.90;;;0.40;;
68398;SDS011;56258;52.196;13.868;2022-12-26T07:11:59;3.90;;;0.40;;
68398;SDS011;56258;52.196;13.868;2022-12-26T07:14:26;2.58;;;0.40;;
68398;SDS011;56258;52.196;13.868;2022-12-26T07:16:52;3.97;;;0.40;;
68398;SDS011;56258;52.196;13.868;2022-12-26T07:19:19;3.17;;;0.30;;
68398;SDS011;56258;52.196;13.868;2022-12-26T07:21:46;2.10;;;0.30;;
68398;SDS011;56258;52.196;13.868;2022-12-26T07:24:14;2.95;;;0.45;;
68398;SDS011;56258;52.196;13.868;2022-12-26T07:26:43;2.67;;;0.40;;
68398;SDS011;56258;52.196;13.868;2022-12-26T07:29:10;2.03;;;0.30;;
68398;SDS011;56258;52.196;13.868;2022-12-26T07:31:38;1.88;;;0.30;;
68398;SDS011;56258;52.196;13.868;2022-12-26T07:34:06;3.05;;;0.30;;
68398;SDS011;56258;52.196;13.868;2022-12-26T07:36:33;2.80;;;0.40;;
68398;SDS011;56258;52.196;13.868;2022-12-26T07:38:59;2.67;;;0.45;;
68398;SDS011;56258;52.196;13.868;2022-12-26T07:41:27;2.63;;;0.40;;
68398;SDS011;56258;52.196;13.868;2022-12-26T07:44:12;4.30;;;0.40;;
68398;SDS011;56258;52.196;13.868;2022-12-26T07:46:39;4.30;;;0.40;;
68398;SDS011;56258;52.196;13.868;2022-12-26T07:49:06;3.13;;;0.30;;
68398;SDS011;56258;52.196;13.868;2022-12-26T07:51:33;3.05;;;0.30;;
68398;SDS011;56258;52.196;13.868;2022-12-26T07:53:59;3.75;;;0.40;;
68398;SDS011;56258;52.196;13.868;2022-12-26T07:56:34;2.05;;;0.40;;
68398;SDS011;56258;52.196;13.868;2022-12-26T07:59:01;3.13;;;0.30;;
68398;SDS011;56258;52.196;13.868;2022-12-26T08:01:27;3.03;;;0.40;;
68398;SDS011;56258;52.196;13.868;2022-12-26T08:03:54;2.75;;;0.40;;
68398;SDS011;56258;52.196;13.868;2022-12-26T08:06:21;1.80;;;0.30;;
68398;SDS011;56258;52.196;13.868;2022-12-26T08:08:49;2.15;;;0.30;;
68398;SDS011;56258;52.196;13.868;2022-12-26T08:11:18;2.90;;;0.30;;
68398;SDS011;56258;52.196;13.868;2022-12-26T08:13:46;3.08;;;0.40;;
68398;SDS011;56258;52.196;13.868;2022-12-26T08:16:13;3.00;;;0.30;;
68398;SDS011;56258;52.196;13.868;2022-12-26T08:18:40;3.35;;;0.30;;
68398;SDS011;56258;52.196;13.868;2022-12-26T08:21:08;2.15;;;0.40;;
68398;SDS011;56258;52.196;13.868;2022-12-26T08:23:35;2.00;;;0.30;;
68398;SDS011;56258;52.196;13.868;2022-12-26T08:26:05;2.33;;;0.30;;
68398;SDS011;56258;52.196;13.868;2022-12-26T08:28:33;2.45;;;0.30;;
68398;SDS011;56258;52.196;13.868;2022-12-26T08:31:04;2.40;;;0.40;;
68398;SDS011;56258;52.196;13.868;2022-12-26T08:33:36;2.95;;;0.40;;
68398;SDS011;56258;52.196;13.868;2022-12-26T08:36:04;3.15;;;0.40;;
68398;SDS011;56258;52.196;13.868;2022-12-26T08:38:34;2.20;;;0.30;;
68398;SDS011;56258;52.196;13.868;2022-12-26T08:41:01;2.17;;;0.40;;
68398;SDS011;56258;52.196;13.868;2022-12-26T08:43:28;3.60;;;0.40;;
68398;SDS011;56258;52.196;13.868;2022-12-26T08:46:15;2.38;;;0.30;;
68398;SDS011;56258;52.196;13.868;2022-12-26T08:48:43;2.17;;;0.30;;
68398;SDS011;56258;52.196;13.868;2022-12-26T08:51:14;3.45;;;0.30;;
68398;SDS011;56258;52.196;13.868;2022-12-26T08:53:42;2.55;;;0.40;;
68398;SDS011;56258;52.196;13.868;2022-12-26T08:56:12;3.28;;;0.40;;
68398;SDS011;56258;52.196;13.868;2022-12-26T08:58:40;4.45;;;0.40;;
68398;SDS011;56258;52.196;13.868;2022-12-26T09:01:29;1.77;;;0.30;;
68398;SDS011;56258;52.196;13.868;2022-12-26T09:03:56;2.25;;;0.30;;
68398;SDS011;56258;52.196;13.868;2022-12-26T09:06:27;2.08;;;0.30;;
68398;SDS011;56258;52.196;13.868;2022-12-26T09:08:57;1.98;;;0.30;;
68398;SDS011;56258;52.196;13.868;2022-12-26T09:11:25;3.47;;;0.40;;
68398;SDS011;56258;52.196;13.868;2022-12-26T09:13:55;2.95;;;0.47;;
68398;SDS011;56258;52.196;13.868;2022-12-26T09:16:25;2.58;;;0.30;;
68398;SDS011;56258;52.196;13.868;2022-12-26T09:19:01;2.97;;;0.40;;
68398;SDS011;56258;52.196;13.868;2022-12-26T09:21:29;1.70;;;0.30;;
68398;SDS011;56258;52.196;13.868;2022-12-26T09:23:57;2.38;;;0.40;;
68398;SDS011;56258;52.196;13.868;2022-12-26T09:26:26;2.05;;;0.30;;
68398;SDS011;56258;52.196;13.868;2022-12-26T09:28:54;3.15;;;0.32;;
68398;SDS011;56258;52.196;13.868;2022-12-26T09:31:22;2.28;;;0.35;;
68398;SDS011;56258;52.196;13.868;2022-12-26T09:33:53;2.15;;;0.30;;
68398;SDS011;56258;52.196;13.868;2022-12-26T09:36:24;2.03;;;0.30;;
68398;SDS011;56258;52.196;13.868;2022-12-26T09:38:53;3.50;;;0.40;;
68398;SDS011;56258;52.196;13.868;2022-12-26T09:44:26;2.10;;;0.30;;
68398;SDS011;56258;52.196;13.868;2022-12-26T09:47:07;2.53;;;0.40;;
68398;SDS011;56258;52.196;13.868;2022-12-26T09:49:57;2.05;;;0.30;;
68398;SDS011;56258;52.196;13.868;2022-12-26T09:52:42;2.03;;;0.30;;
68398;SDS011;56258;52.196;13.868;2022-12-26T09:55:26;2.22;;;0.30;;
68398;SDS011;56258;52.196;13.868;2022-12-26T09:57:58;2.42;;;0.40;;
68398;SDS011;56258;52.196;13.868;2022-12-26T10:00:33;2.00;;;0.40;;
68398;SDS011;56258;52.196;13.868;2022-12-26T10:03:08;2.15;;;0.32;;
68398;SDS011;56258;52.196;13.868;2022-12-26T10:05:38;2.55;;;0.30;;
68398;SDS011;56258;52.196;13.868;2022-12-26T10:08:23;2.47;;;0.30;;
68398;SDS011;56258;52.196;13.868;2022-12-26T10:11:06;2.30;;;0.40;;
68398;SDS011;56258;52.196;13.868;2022-12-26T10:13:45;2.58;;;0.40;;
68398;SDS011;56258;52.196;13.868;2022-12-26T10:16:21;1.90;;;0.30;;
68398;SDS011;56258;52.196;13.868;2022-12-26T10:21:52;3.00;;;0.30;;
68398;SDS011;56258;52.196;13.868;2022-12-26T10:24:40;1.92;;;0.30;;
68398;SDS011;56258;52.196;13.868;2022-12-26T10:27:13;1.70;;;0.30;;
68398;SDS011;56258;52.196;13.868;2022-12-26T10:29:49;2.03;;;0.30;;
68398;SDS011;56258;52.196;13.868;2022-12-26T10:32:35;2.63;;;0.30;;
68398;SDS011;56258;52.196;13.868;2022-12-26T10:38:19;2.00;;;0.30;;
68398;SDS011;56258;52.196;13.868;2022-12-26T10:41:13;1.98;;;0.30;;
68398;SDS011;56258;52.196;13.868;2022-12-26T10:44:09;2.05;;;0.30;;
68398;SDS011;56258;52.196;13.868;2022-12-26T10:46:59;2.63;;;0.40;;
68398;SDS011;56258;52.196;13.868;2022-12-26T10:49:33;1.77;;;0.30;;
68398;SDS011;56258;52.196;13.868;2022-12-26T10:52:01;2.45;;;0.40;;
68398;SDS011;56258;52.196;13.868;2022-12-26T10:54:29;1.75;;;0.30;;
68398;SDS011;56258;52.196;13.868;2022-12-26T10:56:56;1.92;;;0.30;;
68398;SDS011;56258;52.196;13.868;2022-12-26T10:59:40;2.13;;;0.30;;
68398;SDS011;56258;52.196;13.868;2022-12-26T11:02:12;2.65;;;0.40;;
68398;SDS011;56258;52.196;13.868;2022-12-26T11:04:57;2.40;;;0.32;;
68398;SDS011;56258;52.196;13.868;2022-12-26T11:07:51;1.92;;;0.30;;
68398;SDS011;56258;52.196;13.868;2022-12-26T11:10:31;2.20;;;0.30;;
68398;SDS011;56258;52.196;13.868;2022-12-26T11:13:02;2.33;;;0.30;;
68398;SDS011;56258;52.196;13.868;2022-12-26T11:15:48;2.38;;;0.30;;
68398;SDS011;56258;52.196;13.868;2022-12-26T11:18:20;2.05;;;0.30;;
68398;SDS011;56258;52.196;13.868;2022-12-26T11:20:53;2.08;;;0.30;;
68398;SDS011;56258;52.196;13.868;2022-12-26T11:23:29;2.08;;;0.30;;
68398;SDS011;56258;52.196;13.868;2022-12-26T11:25:59;2.83;;;0.30;;
68398;SDS011;56258;52.196;13.868;2022-12-26T11:30:55;2.38;;;0.30;;
68398;SDS011;56258;52.196;13.868;2022-12-26T11:38:51;2.20;;;0.30;;
68398;SDS011;56258;52.196;13.868;2022-12-26T11:44:10;3.70;;;0.30;;
68398;SDS011;56258;52.196;13.868;2022-12-26T11:49:32;1.65;;;0.30;;
68398;SDS011;56258;52.196;13.868;2022-12-26T11:57:57;2.25;;;0.30;;
68398;SDS011;56258;52.196;13.868;2022-12-26T12:03:01;2.05;;;0.30;;
68398;SDS011;56258;52.196;13.868;2022-12-26T12:05:41;2.50;;;0.32;;
68398;SDS011;56258;52.196;13.868;2022-12-26T12:11:21;2.38;;;0.30;;
68398;SDS011;56258;52.196;13.868;2022-12-26T12:16:34;2.08;;;0.30;;
68398;SDS011;56258;52.196;13.868;2022-12-26T12:22:06;1.85;;;0.20;;
68398;SDS011;56258;52.196;13.868;2022-12-26T12:24:59;7.65;;;0.50;;
68398;SDS011;56258;52.196;13.868;2022-12-26T12:30:42;11.00;;;0.60;;
68398;SDS011;56258;52.196;13.868;2022-12-26T12:33:24;7.30;;;0.40;;
68398;SDS011;56258;52.196;13.868;2022-12-26T12:36:02;16.55;;;0.93;;
68398;SDS011;56258;52.196;13.868;2022-12-26T12:38:46;9.77;;;0.47;;
68398;SDS011;56258;52.196;13.868;2022-12-26T12:44:20;7.68;;;0.50;;
68398;SDS011;56258;52.196;13.868;2022-12-26T12:50:08;15.07;;;0.70;;
68398;SDS011;56258;52.196;13.868;2022-12-26T13:00:57;8.88;;;0.65;;
68398;SDS011;56258;52.196;13.868;2022-12-26T13:03:35;15.10;;;0.70;;
68398;SDS011;56258;52.196;13.868;2022-12-26T13:06:13;9.48;;;0.80;;
68398;SDS011;56258;52.196;13.868;2022-12-26T13:08:47;8.82;;;0.60;;
68398;SDS011;56258;52.196;13.868;2022-12-26T13:11:29;7.55;;;0.60;;
68398;SDS011;56258;52.196;13.868;2022-12-26T13:16:41;10.57;;;0.52;;
68398;SDS011;56258;52.196;13.868;2022-12-26T13:19:15;5.70;;;0.55;;
68398;SDS011;56258;52.196;13.868;2022-12-26T13:21:45;8.18;;;0.40;;
68398;SDS011;56258;52.196;13.868;2022-12-26T13:27:15;7.15;;;0.43;;
68398;SDS011;56258;52.196;13.868;2022-12-26T13:29:47;6.97;;;0.50;;
68398;SDS011;56258;52.196;13.868;2022-12-26T13:32:25;7.07;;;0.50;;
68398;SDS011;56258;52.196;13.868;2022-12-26T13:34:56;5.40;;;0.47;;
68398;SDS011;56258;52.196;13.868;2022-12-26T13:40:00;4.55;;;0.40;;
68398;SDS011;56258;52.196;13.868;2022-12-26T13:50:52;4.75;;;0.40;;
68398;SDS011;56258;52.196;13.868;2022-12-26T13:55:58;5.38;;;0.40;;
68398;SDS011;56258;52.196;13.868;2022-12-26T14:07:18;3.50;;;0.40;;
68398;SDS011;56258;52.196;13.868;2022-12-26T14:18:08;2.38;;;0.30;;
68398;SDS011;56258;52.196;13.868;2022-12-26T14:26:49;4.60;;;0.40;;
68398;SDS011;56258;52.196;13.868;2022-12-26T14:29:37;5.72;;;0.40;;
68398;SDS011;56258;52.196;13.868;2022-12-26T14:32:09;6.85;;;0.50;;
68398;SDS011;56258;52.196;13.868;2022-12-26T14:37:51;6.80;;;0.50;;
68398;SDS011;56258;52.196;13.868;2022-12-26T14:40:36;8.15;;;0.63;;
68398;SDS011;56258;52.196;13.868;2022-12-26T14:45:43;7.45;;;0.35;;
68398;SDS011;56258;52.196;13.868;2022-12-26T14:55:46;5.38;;;0.30;;
68398;SDS011;56258;52.196;13.868;2022-12-26T14:58:31;3.10;;;0.35;;
68398;SDS011;56258;52.196;13.868;2022-12-26T15:15:59;4.00;;;0.30;;
68398;SDS011;56258;52.196;13.868;2022-12-26T15:33:20;5.35;;;0.50;;
68398;SDS011;56258;52.196;13.868;2022-12-26T15:36:02;3.72;;;0.30;;
68398;SDS011;56258;52.196;13.868;2022-12-26T15:39:02;4.20;;;0.30;;
68398;SDS011;56258;52.196;13.868;2022-12-26T15:48:12;3.08;;;0.22;;
68398;SDS011;56258;52.196;13.868;2022-12-26T16:01:57;1.90;;;0.22;;
68398;SDS011;56258;52.196;13.868;2022-12-26T16:04:32;3.42;;;0.30;;
68398;SDS011;56258;52.196;13.868;2022-12-26T16:09:51;2.80;;;0.40;;
68398;SDS011;56258;52.196;13.868;2022-12-26T16:14:46;1.90;;;0.20;;
68398;SDS011;56258;52.196;13.868;2022-12-26T16:19:44;2.67;;;0.30;;
68398;SDS011;56258;52.196;13.868;2022-12-26T16:22:14;2.40;;;0.30;;
68398;SDS011;56258;52.196;13.868;2022-12-26T16:25:21;2.30;;;0.30;;
68398;SDS011;56258;52.196;13.868;2022-12-26T16:27:51;3.28;;;0.30;;
68398;SDS011;56258;52.196;13.868;2022-12-26T16:30:22;2.42;;;0.20;;
68398;SDS011;56258;52.196;13.868;2022-12-26T16:32:52;2.13;;;0.30;;
68398;SDS011;56258;52.196;13.868;2022-12-26T16:37:47;3.47;;;0.30;;
68398;SDS011;56258;52.196;13.868;2022-12-26T16:40:17;2.03;;;0.22;;
68398;SDS011;56258;52.196;13.868;2022-12-26T16:45:34;3.58;;;0.30;;
68398;SDS011;56258;52.196;13.868;2022-12-26T16:48:04;1.90;;;0.28;;
68398;SDS011;56258;52.196;13.868;2022-12-26T16:50:33;2.00;;;0.30;;
68398;SDS011;56258;52.196;13.868;2022-12-26T16:53:08;1.92;;;0.20;;
68398;SDS011;56258;52.196;13.868;2022-12-26T16:55:42;1.65;;;0.30;;
68398;SDS011;56258;52.196;13.868;2022-12-26T16:58:13;2.05;;;0.20;;
68398;SDS011;56258;52.196;13.868;2022-12-26T17:00:44;2.50;;;0.25;;
68398;SDS011;56258;52.196;13.868;2022-12-26T17:06:23;2.08;;;0.30;;
68398;SDS011;56258;52.196;13.868;2022-12-26T17:08:53;1.35;;;0.17;;
68398;SDS011;56258;52.196;13.868;2022-12-26T17:11:26;1.63;;;0.20;;
68398;SDS011;56258;52.196;13.868;2022-12-26T17:13:54;2.40;;;0.20;;
68398;SDS011;56258;52.196;13.868;2022-12-26T17:16:23;4.63;;;0.30;;
68398;SDS011;56258;52.196;13.868;2022-12-26T17:18:53;1.45;;;0.13;;
68398;SDS011;56258;52.196;13.868;2022-12-26T17:21:28;1.75;;;0.20;;
68398;SDS011;56258;52.196;13.868;2022-12-26T17:26:36;1.02;;;0.20;;
68398;SDS011;56258;52.196;13.868;2022-12-26T17:29:04;3.05;;;0.20;;
68398;SDS011;56258;52.196;13.868;2022-12-26T17:31:38;1.77;;;0.20;;
68398;SDS011;56258;52.196;13.868;2022-12-26T17:34:18;1.30;;;0.20;;
68398;SDS011;56258;52.196;13.868;2022-12-26T17:36:49;2.42;;;0.28;;
68398;SDS011;56258;52.196;13.868;2022-12-26T17:39:36;1.95;;;0.28;;
68398;SDS011;56258;52.196;13.868;2022-12-26T17:42:03;1.93;;;0.20;;
68398;SDS011;56258;52.196;13.868;2022-12-26T17:47:20;2.15;;;0.20;;
68398;SDS011;56258;52.196;13.868;2022-12-26T17:49:50;1.63;;;0.20;;
68398;SDS011;56258;52.196;13.868;2022-12-26T17:52:19;0.75;;;0.10;;
68398;SDS011;56258;52.196;13.868;2022-12-26T17:54:50;1.95;;;0.20;;
68398;SDS011;56258;52.196;13.868;2022-12-26T17:57:25;1.30;;;0.20;;
68398;SDS011;56258;52.196;13.868;2022-12-26T17:59:54;2.08;;;0.20;;
68398;SDS011;56258;52.196;13.868;2022-12-26T18:02:22;1.80;;;0.20;;
68398;SDS011;56258;52.196;13.868;2022-12-26T18:04:49;1.20;;;0.20;;
68398;SDS011;56258;52.196;13.868;2022-12-26T18:07:20;2.67;;;0.20;;
68398;SDS011;56258;52.196;13.868;2022-12-26T18:09:57;1.20;;;0.17;;
68398;SDS011;56258;52.196;13.868;2022-12-26T18:12:26;2.35;;;0.25;;
68398;SDS011;56258;52.196;13.868;2022-12-26T18:14:53;1.50;;;0.20;;
68398;SDS011;56258;52.196;13.868;2022-12-26T18:17:26;1.95;;;0.40;;
68398;SDS011;56258;52.196;13.868;2022-12-26T18:19:56;2.38;;;0.20;;
68398;SDS011;56258;52.196;13.868;2022-12-26T18:22:24;1.45;;;0.20;;
68398;SDS011;56258;52.196;13.868;2022-12-26T18:24:51;1.92;;;0.20;;
68398;SDS011;56258;52.196;13.868;2022-12-26T18:27:31;1.38;;;0.20;;
68398;SDS011;56258;52.196;13.868;2022-12-26T18:32:27;2.05;;;0.20;;
68398;SDS011;56258;52.196;13.868;2022-12-26T18:34:55;1.52;;;0.20;;
68398;SDS011;56258;52.196;13.868;2022-12-26T18:37:23;1.90;;;0.20;;
68398;SDS011;56258;52.196;13.868;2022-12-26T18:39:52;2.15;;;0.20;;
68398;SDS011;56258;52.196;13.868;2022-12-26T18:42:19;1.98;;;0.20;;
68398;SDS011;56258;52.196;13.868;2022-12-26T18:44:46;1.17;;;0.17;;
68398;SDS011;56258;52.196;13.868;2022-12-26T18:47:13;1.35;;;0.10;;
68398;SDS011;56258;52.196;13.868;2022-12-26T18:49:44;1.77;;;0.20;;
68398;SDS011;56258;52.196;13.868;2022-12-26T18:52:11;2.28;;;0.20;;
68398;SDS011;56258;52.196;13.868;2022-12-26T18:54:43;1.75;;;0.20;;